createdAt,value
2019-05-02T00:00:10.047Z,18.60
2019-05-02T00:02:14.765Z,21.00
2019-05-02T00:04:21.020Z,21.17
2019-05-02T00:06:24.607Z,20.70
2019-05-02T00:08:29.215Z,21.90
2019-05-02T00:10:34.544Z,21.73
2019-05-02T00:12:38.601Z,20.30
2019-05-02T00:14:43.017Z,20.37
2019-05-02T00:16:49.323Z,21.80
2019-05-02T00:18:52.530Z,19.03
2019-05-02T00:20:57.105Z,23.63
2019-05-02T00:23:01.961Z,16.67
2019-05-02T00:25:06.036Z,17.33
2019-05-02T00:27:10.919Z,19.83
2019-05-02T00:29:19.003Z,17.53
2019-05-02T00:31:21.494Z,18.77
2019-05-02T00:33:29.245Z,18.47
2019-05-02T00:35:30.924Z,17.93
2019-05-02T00:37:34.841Z,21.03
2019-05-02T00:39:38.657Z,16.00
2019-05-02T00:41:42.521Z,18.43
2019-05-02T00:43:46.369Z,17.37
2019-05-02T00:45:50.169Z,18.80
2019-05-02T00:47:59.987Z,17.73
2019-05-02T00:50:06.142Z,17.50
2019-05-02T00:52:09.582Z,19.57
2019-05-02T00:54:13.369Z,17.63
2019-05-02T00:56:17.169Z,21.03
2019-05-02T00:58:20.971Z,19.83
2019-05-02T01:00:25.894Z,20.63
2019-05-02T01:02:40.666Z,18.53
2019-05-02T01:04:43.651Z,18.40
2019-05-02T01:06:49.332Z,21.07
2019-05-02T01:08:53.084Z,21.03
2019-05-02T01:10:58.087Z,20.17
2019-05-02T01:13:01.828Z,15.00
2019-05-02T01:15:08.284Z,18.43
2019-05-02T01:17:11.580Z,21.00
2019-05-02T01:19:16.050Z,17.77
2019-05-02T01:21:21.015Z,21.67
2019-05-02T01:23:27.494Z,19.63
2019-05-02T01:25:30.458Z,20.73
2019-05-02T01:27:41.219Z,19.03
2019-05-02T01:29:50.150Z,19.50
2019-05-02T01:32:25.207Z,15.80
2019-05-02T01:35:05.169Z,16.97
2019-05-02T01:37:20.790Z,18.00
2019-05-02T01:39:23.017Z,20.87
2019-05-02T01:41:29.185Z,19.07
2019-05-02T01:43:32.897Z,17.80
2019-05-02T01:45:41.814Z,19.70
2019-05-02T01:47:43.237Z,17.00
2019-05-02T01:49:47.047Z,13.23
2019-05-02T01:51:52.880Z,15.27
2019-05-02T01:53:56.844Z,14.87
2019-05-02T01:56:00.597Z,17.27
2019-05-02T01:58:04.541Z,15.83
2019-05-02T02:00:11.441Z,12.60
2019-05-02T02:02:15.335Z,14.20
2019-05-02T02:04:20.942Z,14.60
2019-05-02T02:06:24.688Z,15.93
2019-05-02T02:08:32.616Z,13.97
2019-05-02T02:10:34.056Z,13.70
2019-05-02T02:12:41.249Z,14.70
2019-05-02T02:14:43.435Z,12.97
2019-05-02T02:16:47.288Z,11.03
2019-05-02T02:19:03.947Z,14.47
2019-05-02T02:21:20.133Z,13.83
2019-05-02T02:23:50.979Z,16.03
2019-05-02T02:25:58.597Z,15.13
2019-05-02T02:28:02.490Z,15.67
2019-05-02T02:30:06.956Z,12.90
2019-05-02T02:32:10.766Z,14.30
2019-05-02T02:34:21.483Z,12.63
2019-05-02T02:36:31.371Z,13.73
2019-05-02T02:38:33.165Z,9.67
2019-05-02T02:40:33.500Z,13.47
2019-05-02T02:42:37.947Z,11.13
2019-05-02T02:44:59.153Z,11.13
2019-05-02T02:47:11.966Z,11.77
2019-05-02T02:49:20.605Z,11.57
2019-05-02T02:51:24.030Z,9.37
2019-05-02T02:53:32.447Z,8.47
2019-05-02T02:55:36.323Z,11.73
2019-05-02T02:57:40.141Z,10.53
2019-05-02T02:59:43.938Z,9.63
2019-05-02T03:01:47.741Z,8.07
2019-05-02T03:03:51.553Z,9.57
2019-05-02T03:05:58.548Z,10.73
2019-05-02T03:08:05.308Z,9.37
2019-05-02T03:10:08.438Z,8.77
2019-05-02T03:12:36.149Z,11.57
2019-05-02T03:14:40.997Z,10.73
2019-05-02T03:16:47.187Z,11.43
2019-05-02T03:18:52.198Z,10.63
2019-05-02T03:20:56.120Z,9.70
2019-05-02T03:23:00.024Z,12.37
2019-05-02T03:25:04.174Z,12.20
2019-05-02T03:27:08.094Z,12.60
2019-05-02T03:29:12.042Z,11.40
2019-05-02T03:31:29.089Z,10.73
2019-05-02T03:33:21.446Z,10.77
2019-05-02T03:35:40.404Z,10.07
2019-05-02T03:37:31.645Z,12.43
2019-05-02T03:39:36.529Z,10.60
2019-05-02T03:41:40.512Z,12.47
2019-05-02T03:43:44.390Z,12.33
2019-05-02T03:45:48.348Z,13.27
2019-05-02T03:47:52.174Z,11.30
2019-05-02T03:49:56.245Z,13.97
2019-05-02T03:52:02.811Z,14.13
2019-05-02T03:54:10.296Z,12.53
2019-05-02T03:56:14.364Z,11.80
2019-05-02T03:58:18.427Z,10.80
2019-05-02T04:00:24.435Z,11.13
2019-05-02T04:02:28.933Z,10.17
2019-05-02T04:04:32.793Z,12.73
2019-05-02T04:06:37.097Z,11.70
2019-05-02T04:08:41.283Z,9.70
2019-05-02T04:11:21.358Z,11.57
2019-05-02T04:13:29.986Z,11.47
2019-05-02T04:15:35.135Z,10.40
2019-05-02T04:17:37.416Z,13.33
2019-05-02T04:19:41.373Z,17.70
2019-05-02T04:21:45.369Z,18.87
2019-05-02T04:23:49.653Z,15.83
2019-05-02T04:25:54.698Z,16.03
2019-05-02T04:27:59.856Z,18.43
2019-05-02T04:30:10.863Z,22.83
2019-05-02T04:32:11.581Z,21.43
2019-05-02T04:34:17.812Z,23.17
2019-05-02T04:36:20.463Z,22.40
2019-05-02T04:38:38.688Z,22.23
2019-05-02T04:40:35.143Z,19.93
2019-05-02T04:42:35.435Z,22.17
2019-05-02T04:44:47.897Z,22.17
2019-05-02T04:46:44.805Z,19.43
2019-05-02T04:48:53.000Z,22.87
2019-05-02T04:51:02.017Z,20.60
2019-05-02T04:53:00.843Z,22.17
2019-05-02T04:55:17.459Z,24.37
2019-05-02T04:57:10.366Z,28.13
2019-05-02T04:59:19.871Z,25.17
2019-05-02T05:01:21.363Z,21.83
2019-05-02T05:03:25.371Z,24.47
2019-05-02T05:05:31.398Z,23.87
2019-05-02T05:07:40.960Z,24.87
2019-05-02T05:09:47.973Z,22.33
2019-05-02T05:11:48.179Z,22.40
2019-05-02T05:13:52.467Z,25.40
2019-05-02T05:15:57.515Z,25.33
2019-05-02T05:18:04.480Z,35.67
2019-05-02T05:20:13.730Z,24.50
2019-05-02T05:22:13.375Z,23.10
2019-05-02T05:24:42.469Z,22.00
2019-05-02T05:26:49.292Z,24.80
2019-05-02T05:28:53.041Z,21.07
2019-05-02T05:30:58.295Z,24.67
2019-05-02T05:33:02.157Z,24.70
2019-05-02T05:35:09.139Z,18.77
2019-05-02T05:37:13.387Z,22.40
2019-05-02T05:39:17.663Z,21.97
2019-05-02T05:41:23.275Z,24.70
2019-05-02T05:43:27.626Z,27.73
2019-05-02T05:45:31.386Z,22.57
2019-05-02T05:47:35.104Z,22.07
2019-05-02T05:49:38.825Z,23.47
2019-05-02T05:51:42.547Z,22.13
2019-05-02T05:53:47.897Z,24.77
2019-05-02T05:55:53.670Z,23.10
2019-05-02T05:58:01.376Z,23.70
2019-05-02T06:00:03.713Z,21.33
2019-05-02T06:02:13.110Z,20.70
2019-05-02T06:04:22.102Z,22.37
2019-05-02T06:06:23.381Z,28.00
2019-05-02T06:08:25.383Z,22.20
2019-05-02T06:10:29.206Z,24.60
2019-05-02T06:12:35.496Z,23.27
2019-05-02T06:14:38.464Z,26.90
2019-05-02T06:16:46.698Z,26.50
2019-05-02T06:18:47.659Z,28.50
2019-05-02T06:20:51.490Z,29.97
2019-05-02T06:22:59.892Z,27.63
2019-05-02T06:25:08.653Z,29.63
2019-05-02T06:27:11.119Z,30.10
2019-05-02T06:29:18.735Z,28.87
2019-05-02T06:31:20.322Z,30.33
2019-05-02T06:33:25.930Z,28.53
2019-05-02T06:35:29.512Z,32.30
2019-05-02T06:37:33.241Z,29.70
2019-05-02T06:39:36.979Z,31.47
2019-05-02T06:41:40.718Z,34.58
2019-05-02T06:43:46.538Z,28.07
2019-05-02T06:45:49.890Z,30.07
2019-05-02T06:47:53.688Z,29.87
2019-05-02T06:50:01.076Z,28.90
2019-05-02T06:52:02.922Z,28.20
2019-05-02T06:54:06.741Z,26.77
2019-05-02T06:56:12.746Z,30.37
2019-05-02T06:58:16.003Z,25.47
2019-05-02T07:00:20.182Z,24.17
2019-05-02T07:02:28.128Z,29.27
2019-05-02T07:04:29.574Z,26.30
2019-05-02T07:06:41.999Z,27.67
2019-05-02T07:08:38.917Z,27.47
2019-05-02T07:10:44.925Z,29.43
2019-05-02T07:12:51.157Z,28.30
2019-05-02T07:14:56.097Z,28.50
2019-05-02T07:17:13.635Z,30.33
2019-05-02T07:19:29.177Z,27.77
2019-05-02T07:21:32.857Z,25.97
2019-05-02T07:23:36.589Z,27.50
2019-05-02T07:25:43.913Z,28.43
2019-05-02T07:27:45.919Z,24.73
2019-05-02T07:29:52.187Z,30.40
2019-05-02T07:31:55.119Z,24.23
2019-05-02T07:33:58.815Z,29.03
2019-05-02T07:36:02.632Z,30.33
2019-05-02T07:38:06.433Z,26.23
2019-05-02T07:40:11.993Z,27.53
2019-05-02T07:42:16.037Z,28.03
2019-05-02T07:44:19.771Z,25.77
2019-05-02T07:46:23.501Z,29.17
2019-05-02T07:48:27.250Z,25.07
2019-05-02T07:50:31.040Z,23.77
2019-05-02T07:52:34.984Z,27.23
2019-05-02T07:54:38.712Z,27.90
2019-05-02T07:56:43.584Z,25.17
2019-05-02T07:58:48.178Z,25.90
2019-05-02T08:00:51.887Z,26.13
2019-05-02T08:02:57.919Z,25.90
2019-05-02T08:05:01.242Z,25.77
2019-05-02T08:07:05.128Z,22.47
2019-05-02T08:09:09.792Z,29.60
2019-05-02T08:11:13.672Z,27.63
2019-05-02T08:13:19.380Z,29.03
2019-05-02T08:15:24.723Z,22.97
2019-05-02T08:17:28.594Z,24.73
2019-05-02T08:19:32.350Z,28.73
2019-05-02T08:21:36.157Z,25.13
2019-05-02T08:23:39.969Z,33.90
2019-05-02T08:25:45.463Z,28.57
2019-05-02T08:28:16.040Z,28.20
2019-05-02T08:30:22.066Z,24.13
2019-05-02T08:32:25.822Z,24.83
2019-05-02T08:34:31.080Z,30.87
2019-05-02T08:36:34.805Z,33.77
2019-05-02T08:38:38.668Z,25.20
2019-05-02T08:40:47.596Z,26.20
2019-05-02T08:42:47.832Z,24.73
2019-05-02T08:44:56.168Z,23.97
2019-05-02T08:46:57.092Z,26.23
2019-05-02T08:49:00.845Z,23.10
2019-05-02T08:51:04.752Z,22.60
2019-05-02T08:53:08.574Z,27.93
2019-05-02T08:55:12.499Z,26.47
2019-05-02T08:57:16.252Z,25.37
2019-05-02T08:59:24.457Z,32.73
2019-05-02T09:01:34.970Z,31.93
2019-05-02T09:03:38.928Z,26.87
2019-05-02T09:05:45.656Z,26.87
2019-05-02T09:07:43.370Z,27.87
2019-05-02T09:09:47.092Z,34.77
2019-05-02T09:12:04.291Z,28.87
2019-05-02T09:13:56.322Z,30.57
2019-05-02T09:16:02.804Z,30.33
2019-05-02T09:18:05.637Z,34.47
2019-05-02T09:20:15.595Z,31.83
2019-05-02T09:22:16.873Z,34.83
2019-05-02T09:24:23.283Z,32.10
2019-05-02T09:26:35.016Z,37.50
2019-05-02T09:28:32.050Z,32.03
2019-05-02T09:30:35.876Z,34.43
2019-05-02T09:32:41.729Z,34.43
2019-05-02T09:34:45.053Z,35.87
2019-05-02T09:36:48.789Z,31.23
2019-05-02T09:38:56.019Z,29.95
2019-05-02T09:40:58.048Z,31.27
2019-05-02T09:43:04.190Z,27.60
2019-05-02T09:45:09.886Z,32.70
2019-05-02T09:47:22.342Z,31.80
2019-05-02T09:49:26.173Z,29.55
2019-05-02T09:51:32.307Z,32.60
2019-05-02T09:53:35.587Z,31.33
2019-05-02T09:55:42.345Z,32.10
2019-05-02T09:57:45.166Z,30.77
2019-05-02T09:59:50.701Z,36.13
2019-05-02T10:01:54.365Z,36.25
2019-05-02T10:03:58.115Z,33.70
2019-05-02T10:06:03.084Z,29.93
2019-05-02T10:08:10.752Z,31.02
2019-05-02T10:10:12.880Z,30.25
2019-05-02T10:12:16.703Z,30.05
2019-05-02T10:14:22.410Z,33.38
2019-05-02T10:16:27.458Z,28.27
2019-05-02T10:18:32.937Z,33.92
2019-05-02T10:20:37.073Z,27.95
2019-05-02T10:22:41.860Z,33.08
2019-05-02T10:24:46.403Z,27.48
2019-05-02T10:26:50.150Z,30.77
2019-05-02T10:28:55.601Z,29.45
2019-05-02T10:30:59.365Z,32.80
2019-05-02T10:33:03.403Z,28.40
2019-05-02T10:35:08.364Z,30.88
2019-05-02T10:37:12.373Z,30.62
2019-05-02T10:39:16.125Z,32.20
2019-05-02T10:41:19.946Z,33.48
2019-05-02T10:43:23.684Z,29.98
2019-05-02T10:45:27.501Z,31.20
2019-05-02T10:47:32.795Z,31.45
2019-05-02T10:49:52.585Z,28.52
2019-05-02T10:51:56.095Z,35.90
2019-05-02T10:53:59.828Z,30.50
2019-05-02T10:56:03.572Z,29.72
2019-05-02T10:58:07.451Z,34.45
2019-05-02T11:00:15.448Z,27.22
2019-05-02T11:02:41.955Z,31.35
2019-05-02T11:04:49.434Z,34.43
2019-05-02T11:06:53.242Z,27.95
2019-05-02T11:08:57.811Z,29.77
2019-05-02T11:11:03.161Z,23.57
2019-05-02T11:13:18.991Z,24.25
2019-05-02T11:15:47.606Z,28.92
2019-05-02T11:17:52.965Z,22.58
2019-05-02T11:20:01.951Z,27.85
2019-05-02T11:22:05.538Z,28.38
2019-05-02T11:24:12.232Z,29.25
2019-05-02T11:26:21.509Z,25.48
2019-05-02T11:28:21.988Z,33.63
2019-05-02T11:30:26.711Z,28.87
2019-05-02T11:32:32.568Z,26.65
2019-05-02T11:34:36.157Z,29.77
2019-05-02T11:36:41.557Z,26.55
2019-05-02T11:38:48.037Z,24.57
2019-05-02T11:40:52.108Z,21.15
2019-05-02T11:42:57.331Z,23.15
2019-05-02T11:45:02.702Z,30.50
2019-05-02T11:47:06.601Z,30.60
2019-05-02T11:49:12.254Z,24.95
2019-05-02T11:51:16.510Z,26.60
2019-05-02T11:53:28.846Z,23.75
2019-05-02T11:55:28.955Z,20.82
2019-05-02T11:57:33.205Z,24.45
2019-05-02T11:59:36.727Z,26.75
2019-05-02T12:01:42.649Z,25.25
2019-05-02T12:03:49.594Z,25.97
2019-05-02T12:05:53.391Z,24.15
2019-05-02T12:08:00.825Z,24.25
2019-05-02T12:10:04.717Z,23.77
2019-05-02T12:12:08.368Z,20.57
2019-05-02T12:14:12.377Z,23.02
2019-05-02T12:16:16.587Z,20.23
2019-05-02T12:18:23.072Z,24.52
2019-05-02T12:20:28.618Z,20.45
2019-05-02T12:22:32.477Z,29.40
2019-05-02T12:24:40.384Z,18.25
2019-05-02T12:26:41.986Z,18.42
2019-05-02T12:28:45.901Z,19.05
2019-05-02T12:30:51.725Z,19.02
2019-05-02T12:32:55.136Z,20.05
2019-05-02T12:34:58.838Z,21.87
2019-05-02T12:37:02.658Z,19.27
2019-05-02T12:39:07.237Z,16.25
2019-05-02T12:41:20.312Z,24.63
2019-05-02T12:43:16.580Z,20.52
2019-05-02T12:45:21.941Z,22.82
2019-05-02T12:47:26.652Z,29.12
2019-05-02T12:49:32.351Z,24.47
2019-05-02T12:51:35.862Z,26.45
2019-05-02T12:53:41.310Z,24.30
2019-05-02T12:55:45.033Z,25.15
2019-05-02T12:57:48.750Z,19.80
2019-05-02T12:59:52.627Z,17.27
2019-05-02T13:01:57.972Z,28.50
2019-05-02T13:04:07.290Z,32.15
2019-05-02T13:06:12.335Z,29.82
2019-05-02T13:08:16.171Z,31.42
2019-05-02T13:10:29.725Z,33.92
2019-05-02T13:12:35.801Z,34.63
2019-05-02T13:14:39.733Z,27.30
2019-05-02T13:16:43.506Z,33.50
2019-05-02T13:18:47.397Z,27.93
2019-05-02T13:20:52.770Z,28.17
2019-05-02T13:23:22.530Z,27.62
2019-05-02T13:25:27.279Z,26.25
2019-05-02T13:27:42.983Z,26.25
2019-05-02T13:29:38.102Z,26.07
2019-05-02T13:32:04.102Z,27.17
2019-05-02T13:34:14.812Z,26.05
2019-05-02T13:36:52.633Z,28.85
2019-05-02T13:38:56.446Z,21.75
2019-05-02T13:41:02.424Z,22.50
2019-05-02T13:43:06.020Z,23.35
2019-05-02T13:45:17.975Z,26.27
2019-05-02T13:47:22.398Z,22.55
2019-05-02T13:49:26.194Z,18.90
2019-05-02T13:51:32.063Z,20.75
2019-05-02T13:53:37.740Z,24.47
2019-05-02T13:55:46.535Z,23.55
2019-05-02T13:57:50.347Z,23.60
2019-05-02T13:59:54.181Z,25.40
2019-05-02T14:01:58.757Z,23.62
2019-05-02T14:04:03.714Z,25.23
2019-05-02T14:06:08.230Z,25.40
2019-05-02T14:08:35.066Z,21.82
2019-05-02T14:10:39.268Z,24.27
2019-05-02T14:13:03.204Z,25.82
2019-05-02T14:15:07.338Z,27.25
2019-05-02T14:17:11.709Z,24.43
2019-05-02T14:19:15.494Z,26.80
2019-05-02T14:21:19.234Z,24.72
2019-05-02T14:23:22.973Z,24.40
2019-05-02T14:25:26.868Z,29.63
2019-05-02T14:27:32.054Z,24.05
2019-05-02T14:29:35.887Z,26.77
2019-05-02T14:31:39.821Z,24.00
2019-05-02T14:33:45.616Z,24.32
2019-05-02T14:35:49.412Z,24.10
2019-05-02T14:38:13.208Z,24.77
2019-05-02T14:40:26.938Z,27.27
2019-05-02T14:42:32.238Z,25.37
2019-05-02T14:45:01.475Z,26.55
2019-05-02T14:46:42.522Z,24.90
2019-05-02T14:48:46.847Z,27.52
2019-05-02T14:50:52.737Z,24.45
2019-05-02T14:52:59.054Z,24.20
2019-05-02T14:55:03.042Z,26.35
2019-05-02T14:57:17.044Z,27.22
2019-05-02T14:59:20.054Z,27.48
2019-05-02T15:01:26.057Z,24.10
2019-05-02T15:03:29.440Z,21.97
2019-05-02T15:05:33.188Z,25.68
2019-05-02T15:07:38.465Z,24.37
2019-05-02T15:09:42.256Z,25.15
2019-05-02T15:12:13.495Z,27.20
2019-05-02T15:14:17.907Z,27.65
2019-05-02T15:16:17.695Z,25.52
2019-05-02T15:18:22.789Z,28.20
2019-05-02T15:20:37.274Z,26.37
2019-05-02T15:22:37.195Z,26.10
2019-05-02T15:24:38.062Z,28.17
2019-05-02T15:26:41.953Z,25.62
2019-05-02T15:28:45.980Z,27.15
2019-05-02T15:31:05.122Z,29.87
2019-05-02T15:33:12.593Z,27.93
2019-05-02T15:35:42.546Z,32.33
2019-05-02T15:37:46.317Z,28.50
2019-05-02T15:41:55.522Z,26.52
2019-05-02T15:43:59.268Z,30.00
2019-05-02T15:46:02.982Z,28.30
2019-05-02T15:48:06.825Z,26.17
2019-05-02T15:50:14.739Z,30.80
2019-05-02T15:52:24.124Z,32.17
2019-05-02T15:54:25.858Z,30.90
2019-05-02T15:56:29.603Z,26.27
2019-05-02T15:58:33.332Z,27.22
2019-05-02T16:00:41.983Z,29.63
2019-05-02T16:02:45.830Z,28.57
2019-05-02T16:04:49.585Z,31.65
2019-05-02T16:06:53.315Z,30.70
2019-05-02T16:08:57.136Z,27.00
2019-05-02T16:11:02.872Z,24.87
2019-05-02T16:13:08.774Z,34.27
2019-05-02T16:15:24.745Z,35.33
2019-05-02T16:17:25.695Z,27.95
2019-05-02T16:19:29.844Z,30.52
2019-05-02T16:21:40.175Z,22.60
2019-05-02T16:24:10.902Z,24.50
2019-05-02T16:26:08.926Z,24.37
2019-05-02T16:28:12.811Z,24.65
2019-05-02T16:30:19.904Z,24.75
2019-05-02T16:32:35.637Z,21.70
2019-05-02T16:34:54.204Z,23.55
2019-05-02T16:37:14.992Z,27.15
2019-05-02T16:39:15.482Z,22.17
2019-05-02T16:41:19.461Z,20.70
2019-05-02T16:43:24.979Z,21.50
2019-05-02T16:45:28.861Z,22.02
2019-05-02T16:47:32.788Z,22.27
2019-05-02T16:49:36.531Z,21.20
2019-05-02T16:51:43.029Z,18.57
2019-05-02T16:53:45.779Z,24.80
2019-05-02T16:55:49.513Z,22.65
2019-05-02T16:57:56.739Z,23.02
2019-05-02T17:00:01.494Z,23.25
2019-05-02T17:02:07.984Z,27.70
2019-05-02T17:04:09.879Z,20.80
2019-05-02T17:06:16.958Z,19.75
2019-05-02T17:08:38.175Z,21.90
2019-05-02T17:11:01.957Z,22.00
2019-05-02T17:13:05.958Z,19.65
2019-05-02T17:15:35.152Z,24.32
2019-05-02T17:17:37.611Z,20.15
2019-05-02T17:19:41.353Z,21.27
2019-05-02T17:21:53.933Z,20.20
2019-05-02T17:23:52.401Z,19.52
2019-05-02T17:25:56.260Z,17.98
2019-05-02T17:28:02.504Z,16.97
2019-05-02T17:30:06.109Z,18.02
2019-05-02T17:32:11.482Z,18.00
2019-05-02T17:34:15.464Z,18.32
2019-05-02T17:36:21.597Z,18.62
2019-05-02T17:38:29.101Z,14.05
2019-05-02T17:40:30.115Z,18.75
2019-05-02T17:42:33.956Z,18.27
2019-05-02T17:44:37.684Z,18.35
2019-05-02T17:46:42.834Z,20.57
2019-05-02T17:48:47.855Z,14.90
2019-05-02T17:51:12.374Z,14.23
2019-05-02T17:53:16.363Z,16.70
2019-05-02T17:55:21.523Z,18.15
2019-05-02T17:57:28.619Z,18.87
2019-05-02T17:59:34.408Z,19.70
2019-05-02T18:01:41.662Z,15.88
2019-05-02T18:03:45.054Z,16.60
2019-05-02T18:05:48.872Z,18.62
2019-05-02T18:07:52.767Z,18.40
2019-05-02T18:09:56.415Z,16.40
2019-05-02T18:12:01.540Z,17.00
2019-05-02T18:14:16.082Z,22.55
2019-05-02T18:16:15.076Z,15.70
2019-05-02T18:18:16.792Z,16.97
2019-05-02T18:20:21.923Z,15.00
2019-05-02T18:22:26.412Z,21.45
2019-05-02T18:24:30.203Z,16.55
2019-05-02T18:26:34.080Z,18.98
2019-05-02T18:28:47.001Z,18.12
2019-05-02T18:30:43.388Z,15.35
2019-05-02T18:32:47.200Z,19.00
2019-05-02T18:34:52.002Z,20.92
2019-05-02T18:36:57.537Z,17.98
2019-05-02T18:39:05.153Z,18.00
2019-05-02T18:41:07.969Z,18.92
2019-05-02T18:43:11.855Z,22.73
2019-05-02T18:45:19.279Z,21.60
2019-05-02T18:47:24.775Z,19.75
2019-05-02T18:49:28.800Z,21.85
2019-05-02T18:51:32.654Z,14.98
2019-05-02T18:53:36.391Z,20.77
2019-05-02T18:55:42.203Z,24.47
2019-05-02T18:57:46.117Z,41.73
2019-05-02T18:59:51.922Z,32.58
2019-05-02T19:01:56.585Z,28.75
2019-05-02T19:04:02.074Z,26.77
2019-05-02T19:06:05.926Z,27.17
2019-05-02T19:08:11.973Z,22.70
2019-05-02T19:10:15.821Z,21.10
2019-05-02T19:12:25.737Z,24.63
2019-05-02T19:14:26.381Z,22.62
2019-05-02T19:16:31.769Z,20.52
2019-05-02T19:18:35.737Z,22.97
2019-05-02T19:21:07.897Z,24.18
2019-05-02T19:23:12.459Z,30.57
2019-05-02T19:25:16.378Z,22.10
2019-05-02T19:27:39.132Z,24.65
2019-05-02T19:29:42.896Z,24.60
2019-05-02T19:31:52.534Z,24.87
2019-05-02T19:33:56.489Z,18.13
2019-05-02T19:36:00.257Z,20.13
2019-05-02T19:38:04.058Z,24.60
2019-05-02T19:40:10.131Z,22.80
2019-05-02T19:42:17.089Z,19.07
2019-05-02T19:44:21.203Z,19.87
2019-05-02T19:46:34.718Z,22.27
2019-05-02T19:48:33.067Z,19.67
2019-05-02T19:50:43.179Z,27.33
2019-05-02T19:52:43.508Z,22.27
2019-05-02T19:54:47.279Z,25.40
2019-05-02T19:56:52.388Z,20.93
2019-05-02T19:58:56.728Z,21.10
2019-05-02T20:01:02.184Z,22.47
2019-05-02T20:03:06.296Z,21.17
2019-05-02T20:05:11.857Z,24.15
2019-05-02T20:07:15.645Z,24.65
2019-05-02T20:09:19.432Z,21.00
2019-05-02T20:11:23.241Z,20.33
2019-05-02T20:13:29.638Z,20.17
2019-05-02T20:15:34.549Z,18.80
2019-05-02T20:17:38.281Z,24.30
2019-05-02T20:19:43.824Z,19.30
2019-05-02T20:22:12.763Z,20.77
2019-05-02T20:24:19.413Z,21.83
2019-05-02T20:26:22.245Z,24.77
2019-05-02T20:28:26.021Z,23.43
2019-05-02T20:30:29.842Z,19.97
2019-05-02T20:32:33.670Z,20.77
2019-05-02T20:34:37.500Z,25.80
2019-05-02T20:36:42.603Z,22.27
2019-05-02T20:38:46.389Z,28.07
2019-05-02T20:40:52.050Z,22.77
2019-05-02T20:42:56.029Z,24.17
2019-05-02T20:44:59.906Z,29.23
2019-05-02T20:47:04.884Z,22.97
2019-05-02T20:49:08.726Z,25.77
2019-05-02T20:51:12.563Z,27.70
2019-05-02T20:53:28.142Z,22.63
2019-05-02T20:55:21.869Z,28.17
2019-05-02T20:57:25.591Z,24.07
2019-05-02T20:59:29.319Z,23.33
2019-05-02T21:01:33.052Z,26.37
2019-05-02T21:03:37.849Z,27.90
2019-05-02T21:05:52.088Z,27.50
2019-05-02T21:08:08.277Z,29.23
2019-05-02T21:10:33.975Z,25.93
2019-05-02T21:12:37.728Z,26.83
2019-05-02T21:14:41.678Z,26.50
2019-05-02T21:16:45.466Z,27.17
2019-05-02T21:18:49.265Z,29.20
2019-05-02T21:20:53.079Z,29.40
2019-05-02T21:22:56.876Z,24.67
2019-05-02T21:25:02.454Z,27.57
2019-05-02T21:27:06.159Z,26.57
2019-05-02T21:29:11.993Z,26.40
2019-05-02T21:31:15.423Z,26.77
2019-05-02T21:33:36.393Z,31.27
2019-05-02T21:35:40.136Z,26.80
2019-05-02T21:37:43.871Z,25.83
2019-05-02T21:39:47.853Z,27.83
2019-05-02T21:41:51.821Z,26.47
2019-05-02T21:43:55.542Z,24.53
2019-05-02T21:45:59.403Z,25.53
2019-05-02T21:48:03.233Z,29.27
2019-05-02T21:50:15.847Z,27.40
2019-05-02T21:52:42.376Z,34.53
2019-05-02T21:54:52.883Z,29.40
2019-05-02T21:57:00.045Z,29.97
2019-05-02T21:59:07.951Z,32.13
2019-05-02T22:01:13.236Z,26.17
2019-05-02T22:03:17.103Z,28.87
2019-05-02T22:05:22.218Z,30.37
2019-05-02T22:07:26.128Z,24.73
2019-05-02T22:09:32.163Z,29.63
2019-05-02T22:11:35.591Z,25.93
2019-05-02T22:13:39.439Z,22.67
2019-05-02T22:15:43.299Z,25.83
2019-05-02T22:17:47.153Z,24.33
2019-05-02T22:19:52.482Z,29.70
2019-05-02T22:21:56.297Z,27.50
2019-05-02T22:24:10.375Z,28.33
2019-05-02T22:26:06.643Z,26.20
2019-05-02T22:28:12.478Z,28.57
2019-05-02T22:30:16.086Z,28.57
2019-05-02T22:32:19.912Z,26.87
2019-05-02T22:34:23.706Z,31.13
2019-05-02T22:36:27.575Z,27.03
2019-05-02T22:38:45.487Z,27.23
2019-05-02T22:40:50.516Z,24.07
2019-05-02T22:42:54.302Z,29.87
2019-05-02T22:44:58.021Z,29.43
2019-05-02T22:47:01.954Z,29.27
2019-05-02T22:49:05.918Z,25.63
2019-05-02T22:51:09.780Z,24.37
2019-05-02T22:53:14.019Z,22.47
2019-05-02T22:55:17.922Z,22.23
2019-05-02T22:57:22.598Z,22.83
2019-05-02T22:59:26.450Z,26.50
2019-05-02T23:01:32.255Z,25.83
2019-05-02T23:03:35.915Z,27.43
2019-05-02T23:05:42.213Z,26.63
2019-05-02T23:07:46.988Z,23.20
2019-05-02T23:09:52.672Z,24.97
2019-05-02T23:11:56.469Z,24.17
2019-05-02T23:14:01.740Z,21.60
2019-05-02T23:16:05.714Z,26.70
2019-05-02T23:18:09.490Z,23.53
2019-05-02T23:20:13.824Z,22.83
2019-05-02T23:22:18.627Z,24.77
2019-05-02T23:24:39.179Z,24.93
2019-05-02T23:26:59.006Z,19.83
2019-05-02T23:29:05.971Z,23.40
2019-05-02T23:31:11.466Z,21.90
2019-05-02T23:33:16.345Z,25.13
2019-05-02T23:35:20.170Z,25.30
2019-05-02T23:37:24.964Z,25.27
2019-05-02T23:39:28.885Z,23.20
2019-05-02T23:41:32.948Z,25.03
2019-05-02T23:43:36.804Z,22.63
2019-05-02T23:45:42.273Z,23.60
2019-05-02T23:47:47.068Z,21.40
2019-05-02T23:49:52.816Z,22.87
2019-05-02T23:51:56.696Z,25.70
2019-05-02T23:54:02.131Z,27.27
2019-05-02T23:56:06.027Z,24.23
2019-05-02T23:58:11.890Z,21.23
